sensor_id;sensor_type;location;lat;lon;timestamp;P1;durP1;ratioP1;P2;durP2;ratioP2
54328;SDS011;40710;51.120;13.136;2022-08-30T00:00:31;1507.38;;;634.55;;
54328;SDS011;40710;51.120;13.136;2022-08-30T00:05:39;1559.22;;;649.45;;
54328;SDS011;40710;51.120;13.136;2022-08-30T00:08:05;1542.03;;;606.65;;
54328;SDS011;40710;51.120;13.136;2022-08-30T00:10:30;1550.07;;;602.55;;
54328;SDS011;40710;51.120;13.136;2022-08-30T00:12:55;1530.78;;;604.42;;
54328;SDS011;40710;51.120;13.136;2022-08-30T00:15:21;1543.65;;;621.13;;
54328;SDS011;40710;51.120;13.136;2022-08-30T00:17:45;1505.63;;;483.67;;
54328;SDS011;40710;51.120;13.136;2022-08-30T00:20:11;1472.80;;;526.83;;
54328;SDS011;40710;51.120;13.136;2022-08-30T00:22:38;1471.13;;;532.75;;
54328;SDS011;40710;51.120;13.136;2022-08-30T00:25:02;1513.10;;;539.60;;
54328;SDS011;40710;51.120;13.136;2022-08-30T00:27:28;1526.78;;;517.50;;
54328;SDS011;40710;51.120;13.136;2022-08-30T00:29:53;1516.45;;;534.28;;
54328;SDS011;40710;51.120;13.136;2022-08-30T00:32:18;1491.72;;;531.78;;
54328;SDS011;40710;51.120;13.136;2022-08-30T00:34:44;1493.70;;;524.45;;
54328;SDS011;40710;51.120;13.136;2022-08-30T00:37:08;1454.75;;;529.90;;
54328;SDS011;40710;51.120;13.136;2022-08-30T00:39:33;1408.00;;;497.75;;
54328;SDS011;40710;51.120;13.136;2022-08-30T00:41:57;1409.60;;;443.30;;
54328;SDS011;40710;51.120;13.136;2022-08-30T00:44:22;1434.07;;;471.70;;
54328;SDS011;40710;51.120;13.136;2022-08-30T00:46:47;1410.20;;;421.27;;
54328;SDS011;40710;51.120;13.136;2022-08-30T00:49:11;1391.30;;;453.13;;
54328;SDS011;40710;51.120;13.136;2022-08-30T00:51:36;1450.65;;;456.42;;
54328;SDS011;40710;51.120;13.136;2022-08-30T00:54:02;1407.53;;;404.40;;
54328;SDS011;40710;51.120;13.136;2022-08-30T00:56:27;1474.82;;;444.25;;
54328;SDS011;40710;51.120;13.136;2022-08-30T00:58:53;1442.10;;;412.42;;
54328;SDS011;40710;51.120;13.136;2022-08-30T01:01:20;1445.88;;;415.20;;
54328;SDS011;40710;51.120;13.136;2022-08-30T01:03:44;1435.55;;;396.13;;
54328;SDS011;40710;51.120;13.136;2022-08-30T01:06:10;1426.05;;;392.58;;
54328;SDS011;40710;51.120;13.136;2022-08-30T01:08:35;1439.90;;;423.63;;
54328;SDS011;40710;51.120;13.136;2022-08-30T01:10:59;1395.55;;;398.92;;
54328;SDS011;40710;51.120;13.136;2022-08-30T01:13:26;1429.78;;;402.17;;
54328;SDS011;40710;51.120;13.136;2022-08-30T01:15:51;1382.78;;;385.70;;
54328;SDS011;40710;51.120;13.136;2022-08-30T01:18:17;1455.38;;;408.25;;
54328;SDS011;40710;51.120;13.136;2022-08-30T01:20:43;1399.40;;;380.27;;
54328;SDS011;40710;51.120;13.136;2022-08-30T01:23:14;1398.10;;;382.95;;
54328;SDS011;40710;51.120;13.136;2022-08-30T01:25:41;1382.00;;;393.02;;
54328;SDS011;40710;51.120;13.136;2022-08-30T01:28:11;1384.18;;;389.52;;
54328;SDS011;40710;51.120;13.136;2022-08-30T01:30:38;1430.38;;;419.42;;
54328;SDS011;40710;51.120;13.136;2022-08-30T01:33:06;1431.97;;;423.05;;
54328;SDS011;40710;51.120;13.136;2022-08-30T01:35:33;1376.43;;;393.92;;
54328;SDS011;40710;51.120;13.136;2022-08-30T01:38:06;1425.93;;;413.60;;
54328;SDS011;40710;51.120;13.136;2022-08-30T01:40:31;1382.00;;;397.17;;
54328;SDS011;40710;51.120;13.136;2022-08-30T01:42:55;1453.57;;;426.77;;
54328;SDS011;40710;51.120;13.136;2022-08-30T01:45:19;1373.43;;;387.70;;
54328;SDS011;40710;51.120;13.136;2022-08-30T01:47:44;1375.82;;;389.02;;
54328;SDS011;40710;51.120;13.136;2022-08-30T01:50:09;1379.03;;;396.05;;
54328;SDS011;40710;51.120;13.136;2022-08-30T01:52:34;1443.38;;;414.42;;
54328;SDS011;40710;51.120;13.136;2022-08-30T01:54:58;1380.53;;;384.17;;
54328;SDS011;40710;51.120;13.136;2022-08-30T01:57:23;1431.25;;;404.45;;
54328;SDS011;40710;51.120;13.136;2022-08-30T01:59:49;1381.38;;;378.77;;
54328;SDS011;40710;51.120;13.136;2022-08-30T02:02:18;1366.00;;;368.30;;
54328;SDS011;40710;51.120;13.136;2022-08-30T02:04:45;1439.05;;;417.60;;
54328;SDS011;40710;51.120;13.136;2022-08-30T02:07:10;1432.05;;;412.75;;
54328;SDS011;40710;51.120;13.136;2022-08-30T02:09:35;1462.47;;;402.05;;
54328;SDS011;40710;51.120;13.136;2022-08-30T02:12:00;1383.32;;;374.77;;
54328;SDS011;40710;51.120;13.136;2022-08-30T02:14:25;1432.07;;;409.35;;
54328;SDS011;40710;51.120;13.136;2022-08-30T02:16:50;1430.88;;;401.25;;
54328;SDS011;40710;51.120;13.136;2022-08-30T02:19:15;1388.95;;;396.95;;
54328;SDS011;40710;51.120;13.136;2022-08-30T02:21:39;1427.20;;;412.48;;
54328;SDS011;40710;51.120;13.136;2022-08-30T02:24:04;1379.50;;;377.52;;
54328;SDS011;40710;51.120;13.136;2022-08-30T02:26:28;1367.88;;;373.65;;
54328;SDS011;40710;51.120;13.136;2022-08-30T02:28:53;1374.45;;;379.55;;
54328;SDS011;40710;51.120;13.136;2022-08-30T02:31:18;1438.20;;;408.23;;
54328;SDS011;40710;51.120;13.136;2022-08-30T02:33:43;1418.20;;;402.65;;
54328;SDS011;40710;51.120;13.136;2022-08-30T02:36:07;1374.82;;;383.38;;
54328;SDS011;40710;51.120;13.136;2022-08-30T02:38:32;1407.18;;;412.77;;
54328;SDS011;40710;51.120;13.136;2022-08-30T02:40:57;1353.70;;;390.42;;
54328;SDS011;40710;51.120;13.136;2022-08-30T02:43:21;1355.78;;;384.88;;
54328;SDS011;40710;51.120;13.136;2022-08-30T02:45:46;1342.72;;;385.67;;
54328;SDS011;40710;51.120;13.136;2022-08-30T02:48:10;1386.55;;;407.20;;
54328;SDS011;40710;51.120;13.136;2022-08-30T02:50:38;1348.53;;;390.02;;
54328;SDS011;40710;51.120;13.136;2022-08-30T02:53:04;1354.32;;;392.13;;
54328;SDS011;40710;51.120;13.136;2022-08-30T02:55:28;1338.88;;;389.20;;
54328;SDS011;40710;51.120;13.136;2022-08-30T02:57:52;1327.32;;;383.92;;
54328;SDS011;40710;51.120;13.136;2022-08-30T03:00:18;1296.95;;;481.95;;
54328;SDS011;40710;51.120;13.136;2022-08-30T03:02:43;1259.28;;;549.85;;
54328;SDS011;40710;51.120;13.136;2022-08-30T03:05:08;1292.47;;;536.60;;
54328;SDS011;40710;51.120;13.136;2022-08-30T03:07:35;1275.85;;;545.63;;
54328;SDS011;40710;51.120;13.136;2022-08-30T03:10:00;1295.05;;;525.67;;
54328;SDS011;40710;51.120;13.136;2022-08-30T03:12:25;1271.90;;;547.83;;
54328;SDS011;40710;51.120;13.136;2022-08-30T03:14:49;1268.47;;;536.20;;
54328;SDS011;40710;51.120;13.136;2022-08-30T03:17:14;1287.20;;;511.67;;
54328;SDS011;40710;51.120;13.136;2022-08-30T03:19:39;1286.82;;;532.15;;
54328;SDS011;40710;51.120;13.136;2022-08-30T03:22:04;1269.57;;;530.78;;
54328;SDS011;40710;51.120;13.136;2022-08-30T03:24:30;1328.18;;;553.05;;
54328;SDS011;40710;51.120;13.136;2022-08-30T03:26:55;1317.60;;;534.40;;
54328;SDS011;40710;51.120;13.136;2022-08-30T03:29:20;1285.85;;;527.90;;
54328;SDS011;40710;51.120;13.136;2022-08-30T03:31:45;1294.43;;;551.90;;
54328;SDS011;40710;51.120;13.136;2022-08-30T03:34:10;1336.13;;;540.92;;
54328;SDS011;40710;51.120;13.136;2022-08-30T03:36:34;1297.65;;;543.97;;
54328;SDS011;40710;51.120;13.136;2022-08-30T03:39:01;1298.50;;;533.28;;
54328;SDS011;40710;51.120;13.136;2022-08-30T03:41:25;1294.93;;;528.90;;
54328;SDS011;40710;51.120;13.136;2022-08-30T03:43:49;1304.95;;;542.38;;
54328;SDS011;40710;51.120;13.136;2022-08-30T03:46:14;1353.63;;;557.78;;
54328;SDS011;40710;51.120;13.136;2022-08-30T03:48:39;1347.50;;;571.25;;
54328;SDS011;40710;51.120;13.136;2022-08-30T03:51:04;1301.85;;;550.58;;
54328;SDS011;40710;51.120;13.136;2022-08-30T03:53:28;1291.13;;;529.25;;
54328;SDS011;40710;51.120;13.136;2022-08-30T03:55:53;1337.78;;;537.47;;
54328;SDS011;40710;51.120;13.136;2022-08-30T03:58:17;1340.80;;;539.00;;
54328;SDS011;40710;51.120;13.136;2022-08-30T04:00:41;1334.55;;;540.75;;
54328;SDS011;40710;51.120;13.136;2022-08-30T04:03:06;1340.65;;;534.25;;
54328;SDS011;40710;51.120;13.136;2022-08-30T04:05:30;1305.03;;;538.75;;
54328;SDS011;40710;51.120;13.136;2022-08-30T04:07:55;1342.80;;;536.88;;
54328;SDS011;40710;51.120;13.136;2022-08-30T04:10:19;1311.03;;;535.38;;
54328;SDS011;40710;51.120;13.136;2022-08-30T04:12:44;1361.65;;;514.30;;
54328;SDS011;40710;51.120;13.136;2022-08-30T04:15:09;1334.95;;;506.90;;
54328;SDS011;40710;51.120;13.136;2022-08-30T04:17:34;1363.13;;;507.17;;
54328;SDS011;40710;51.120;13.136;2022-08-30T04:19:59;1355.20;;;518.95;;
54328;SDS011;40710;51.120;13.136;2022-08-30T04:22:23;1352.88;;;518.92;;
54328;SDS011;40710;51.120;13.136;2022-08-30T04:24:47;1354.43;;;505.00;;
54328;SDS011;40710;51.120;13.136;2022-08-30T04:27:12;1323.03;;;528.33;;
54328;SDS011;40710;51.120;13.136;2022-08-30T04:29:36;1342.82;;;579.90;;
54328;SDS011;40710;51.120;13.136;2022-08-30T04:32:01;1320.28;;;547.15;;
54328;SDS011;40710;51.120;13.136;2022-08-30T04:34:26;1341.75;;;518.95;;
54328;SDS011;40710;51.120;13.136;2022-08-30T04:36:50;1340.15;;;530.28;;
54328;SDS011;40710;51.120;13.136;2022-08-30T04:39:16;1353.47;;;570.67;;
54328;SDS011;40710;51.120;13.136;2022-08-30T04:41:41;1347.00;;;578.63;;
54328;SDS011;40710;51.120;13.136;2022-08-30T04:44:05;1329.30;;;543.90;;
54328;SDS011;40710;51.120;13.136;2022-08-30T04:46:30;1336.25;;;558.28;;
54328;SDS011;40710;51.120;13.136;2022-08-30T04:48:55;1393.13;;;563.03;;
54328;SDS011;40710;51.120;13.136;2022-08-30T04:51:19;1340.60;;;552.97;;
54328;SDS011;40710;51.120;13.136;2022-08-30T04:53:44;1374.13;;;533.13;;
54328;SDS011;40710;51.120;13.136;2022-08-30T04:56:12;1368.85;;;557.25;;
54328;SDS011;40710;51.120;13.136;2022-08-30T04:58:40;1343.53;;;518.67;;
54328;SDS011;40710;51.120;13.136;2022-08-30T05:01:04;1372.05;;;529.63;;
54328;SDS011;40710;51.120;13.136;2022-08-30T05:03:34;1391.80;;;521.42;;
54328;SDS011;40710;51.120;13.136;2022-08-30T05:05:58;1336.85;;;536.60;;
54328;SDS011;40710;51.120;13.136;2022-08-30T05:08:23;1331.28;;;527.40;;
54328;SDS011;40710;51.120;13.136;2022-08-30T05:10:48;1384.15;;;539.22;;
54328;SDS011;40710;51.120;13.136;2022-08-30T05:13:14;1370.90;;;521.10;;
54328;SDS011;40710;51.120;13.136;2022-08-30T05:15:40;1373.07;;;522.30;;
54328;SDS011;40710;51.120;13.136;2022-08-30T05:18:06;1337.65;;;511.98;;
54328;SDS011;40710;51.120;13.136;2022-08-30T05:20:31;1387.70;;;507.42;;
54328;SDS011;40710;51.120;13.136;2022-08-30T05:22:56;1391.85;;;500.90;;
54328;SDS011;40710;51.120;13.136;2022-08-30T05:25:22;1376.93;;;529.70;;
54328;SDS011;40710;51.120;13.136;2022-08-30T05:27:48;1351.47;;;544.80;;
54328;SDS011;40710;51.120;13.136;2022-08-30T05:30:13;1355.07;;;528.78;;
54328;SDS011;40710;51.120;13.136;2022-08-30T05:32:38;1365.18;;;544.05;;
54328;SDS011;40710;51.120;13.136;2022-08-30T05:35:04;1330.40;;;552.33;;
54328;SDS011;40710;51.120;13.136;2022-08-30T05:37:29;1369.95;;;496.65;;
54328;SDS011;40710;51.120;13.136;2022-08-30T05:39:53;1332.28;;;494.63;;
54328;SDS011;40710;51.120;13.136;2022-08-30T05:42:19;1370.40;;;499.95;;
54328;SDS011;40710;51.120;13.136;2022-08-30T05:44:43;1329.82;;;513.65;;
54328;SDS011;40710;51.120;13.136;2022-08-30T05:47:08;1334.18;;;534.33;;
54328;SDS011;40710;51.120;13.136;2022-08-30T05:49:32;1400.88;;;510.60;;
54328;SDS011;40710;51.120;13.136;2022-08-30T05:51:56;1376.32;;;484.63;;
54328;SDS011;40710;51.120;13.136;2022-08-30T05:54:21;1387.97;;;467.63;;
54328;SDS011;40710;51.120;13.136;2022-08-30T05:56:45;1266.07;;;562.17;;
54328;SDS011;40710;51.120;13.136;2022-08-30T05:59:10;1249.75;;;556.47;;
54328;SDS011;40710;51.120;13.136;2022-08-30T06:01:40;1298.18;;;559.33;;
54328;SDS011;40710;51.120;13.136;2022-08-30T06:04:06;1272.10;;;551.67;;
54328;SDS011;40710;51.120;13.136;2022-08-30T06:06:32;1293.00;;;538.97;;
54328;SDS011;40710;51.120;13.136;2022-08-30T06:08:59;1276.78;;;510.45;;
54328;SDS011;40710;51.120;13.136;2022-08-30T06:11:24;1268.75;;;559.92;;
54328;SDS011;40710;51.120;13.136;2022-08-30T06:13:50;1289.53;;;553.72;;
54328;SDS011;40710;51.120;13.136;2022-08-30T06:16:17;1300.65;;;559.80;;
54328;SDS011;40710;51.120;13.136;2022-08-30T06:18:43;1272.65;;;570.22;;
54328;SDS011;40710;51.120;13.136;2022-08-30T06:21:14;1288.88;;;565.22;;
54328;SDS011;40710;51.120;13.136;2022-08-30T06:23:40;1258.53;;;550.85;;
54328;SDS011;40710;51.120;13.136;2022-08-30T06:26:04;1280.78;;;552.83;;
54328;SDS011;40710;51.120;13.136;2022-08-30T06:28:30;1271.95;;;557.65;;
54328;SDS011;40710;51.120;13.136;2022-08-30T06:30:55;1282.82;;;546.63;;
54328;SDS011;40710;51.120;13.136;2022-08-30T06:33:19;1245.18;;;560.42;;
54328;SDS011;40710;51.120;13.136;2022-08-30T06:35:43;1293.35;;;568.70;;
54328;SDS011;40710;51.120;13.136;2022-08-30T06:38:08;1290.65;;;568.22;;
54328;SDS011;40710;51.120;13.136;2022-08-30T06:40:32;1310.65;;;590.95;;
54328;SDS011;40710;51.120;13.136;2022-08-30T06:42:57;1264.85;;;602.17;;
54328;SDS011;40710;51.120;13.136;2022-08-30T06:45:21;1305.00;;;583.47;;
54328;SDS011;40710;51.120;13.136;2022-08-30T06:47:46;1302.78;;;589.60;;
54328;SDS011;40710;51.120;13.136;2022-08-30T06:50:11;1304.80;;;563.65;;
54328;SDS011;40710;51.120;13.136;2022-08-30T06:52:37;1273.55;;;589.80;;
54328;SDS011;40710;51.120;13.136;2022-08-30T06:55:03;1275.10;;;595.33;;
54328;SDS011;40710;51.120;13.136;2022-08-30T06:57:28;1326.45;;;593.80;;
54328;SDS011;40710;51.120;13.136;2022-08-30T06:59:55;1287.38;;;619.47;;
54328;SDS011;40710;51.120;13.136;2022-08-30T07:02:20;1319.63;;;601.10;;
54328;SDS011;40710;51.120;13.136;2022-08-30T07:04:44;1273.38;;;615.00;;
54328;SDS011;40710;51.120;13.136;2022-08-30T07:07:09;1280.32;;;609.95;;
54328;SDS011;40710;51.120;13.136;2022-08-30T07:09:34;1294.63;;;630.05;;
54328;SDS011;40710;51.120;13.136;2022-08-30T07:12:00;1315.95;;;625.13;;
54328;SDS011;40710;51.120;13.136;2022-08-30T07:14:26;1319.38;;;610.75;;
54328;SDS011;40710;51.120;13.136;2022-08-30T07:16:50;1284.65;;;633.20;;
54328;SDS011;40710;51.120;13.136;2022-08-30T07:19:15;1318.18;;;624.50;;
54328;SDS011;40710;51.120;13.136;2022-08-30T07:21:41;1329.65;;;631.00;;
54328;SDS011;40710;51.120;13.136;2022-08-30T07:24:09;1324.30;;;623.50;;
54328;SDS011;40710;51.120;13.136;2022-08-30T07:26:36;1284.85;;;638.83;;
54328;SDS011;40710;51.120;13.136;2022-08-30T07:29:02;1331.18;;;630.55;;
54328;SDS011;40710;51.120;13.136;2022-08-30T07:31:28;1290.70;;;678.83;;
54328;SDS011;40710;51.120;13.136;2022-08-30T07:33:52;1329.22;;;630.00;;
54328;SDS011;40710;51.120;13.136;2022-08-30T07:36:17;1325.25;;;634.08;;
54328;SDS011;40710;51.120;13.136;2022-08-30T07:38:42;1323.80;;;638.92;;
54328;SDS011;40710;51.120;13.136;2022-08-30T07:41:14;1286.00;;;692.47;;
54328;SDS011;40710;51.120;13.136;2022-08-30T07:43:43;1281.35;;;692.60;;
54328;SDS011;40710;51.120;13.136;2022-08-30T07:46:07;1326.88;;;661.88;;
54328;SDS011;40710;51.120;13.136;2022-08-30T07:48:33;1317.85;;;672.63;;
54328;SDS011;40710;51.120;13.136;2022-08-30T07:50:58;1335.88;;;670.80;;
54328;SDS011;40710;51.120;13.136;2022-08-30T07:53:22;1285.65;;;703.17;;
54328;SDS011;40710;51.120;13.136;2022-08-30T07:55:47;1279.93;;;728.13;;
54328;SDS011;40710;51.120;13.136;2022-08-30T07:58:11;1297.75;;;760.65;;
54328;SDS011;40710;51.120;13.136;2022-08-30T08:00:36;1328.50;;;711.53;;
54328;SDS011;40710;51.120;13.136;2022-08-30T08:03:04;1333.70;;;723.05;;
54328;SDS011;40710;51.120;13.136;2022-08-30T08:05:36;1339.80;;;736.08;;
54328;SDS011;40710;51.120;13.136;2022-08-30T08:08:05;1275.90;;;759.25;;
54328;SDS011;40710;51.120;13.136;2022-08-30T08:10:29;1338.43;;;744.78;;
54328;SDS011;40710;51.120;13.136;2022-08-30T08:12:54;1330.20;;;739.75;;
54328;SDS011;40710;51.120;13.136;2022-08-30T08:15:18;1331.63;;;738.22;;
54328;SDS011;40710;51.120;13.136;2022-08-30T08:17:42;1329.88;;;735.35;;
54328;SDS011;40710;51.120;13.136;2022-08-30T08:20:07;1281.00;;;804.53;;
54328;SDS011;40710;51.120;13.136;2022-08-30T08:22:31;1282.80;;;797.75;;
54328;SDS011;40710;51.120;13.136;2022-08-30T08:24:56;1316.90;;;743.38;;
54328;SDS011;40710;51.120;13.136;2022-08-30T08:27:20;1315.68;;;761.28;;
54328;SDS011;40710;51.120;13.136;2022-08-30T08:29:45;1451.65;;;866.72;;
54328;SDS011;40710;51.120;13.136;2022-08-30T08:32:09;1367.97;;;891.42;;
54328;SDS011;40710;51.120;13.136;2022-08-30T08:34:34;1410.28;;;817.30;;
54328;SDS011;40710;51.120;13.136;2022-08-30T08:36:58;1360.75;;;820.28;;
54328;SDS011;40710;51.120;13.136;2022-08-30T08:39:23;1415.68;;;779.28;;
54328;SDS011;40710;51.120;13.136;2022-08-30T08:41:59;1450.65;;;802.10;;
54328;SDS011;40710;51.120;13.136;2022-08-30T08:47:29;1456.10;;;754.42;;
54328;SDS011;40710;51.120;13.136;2022-08-30T08:49:58;1400.22;;;787.95;;
54328;SDS011;40710;51.120;13.136;2022-08-30T08:52:28;1385.25;;;783.78;;
54328;SDS011;40710;51.120;13.136;2022-08-30T08:55:19;1393.18;;;735.75;;
54328;SDS011;40710;51.120;13.136;2022-08-30T08:57:45;1387.45;;;803.33;;
54328;SDS011;40710;51.120;13.136;2022-08-30T09:00:10;1299.63;;;829.70;;
54328;SDS011;40710;51.120;13.136;2022-08-30T09:02:47;1332.88;;;765.70;;
54328;SDS011;40710;51.120;13.136;2022-08-30T09:05:21;1320.40;;;756.00;;
54328;SDS011;40710;51.120;13.136;2022-08-30T09:07:49;1329.75;;;756.30;;
54328;SDS011;40710;51.120;13.136;2022-08-30T09:10:18;1277.28;;;809.05;;
54328;SDS011;40710;51.120;13.136;2022-08-30T09:12:43;1321.50;;;754.00;;
54328;SDS011;40710;51.120;13.136;2022-08-30T09:15:11;1266.07;;;789.78;;
54328;SDS011;40710;51.120;13.136;2022-08-30T09:18:14;1313.65;;;742.65;;
54328;SDS011;40710;51.120;13.136;2022-08-30T09:20:36;1315.00;;;740.63;;
54328;SDS011;40710;51.120;13.136;2022-08-30T09:25:50;1269.97;;;813.63;;
54328;SDS011;40710;51.120;13.136;2022-08-30T09:28:20;1286.93;;;816.20;;
54328;SDS011;40710;51.120;13.136;2022-08-30T09:31:48;1335.93;;;764.60;;
54328;SDS011;40710;51.120;13.136;2022-08-30T09:34:00;1344.60;;;780.13;;
54328;SDS011;40710;51.120;13.136;2022-08-30T09:36:32;1331.68;;;749.10;;
54328;SDS011;40710;51.120;13.136;2022-08-30T09:39:00;1320.30;;;747.42;;
54328;SDS011;40710;51.120;13.136;2022-08-30T09:41:29;1360.88;;;767.33;;
54328;SDS011;40710;51.120;13.136;2022-08-30T09:44:13;1376.13;;;794.15;;
54328;SDS011;40710;51.120;13.136;2022-08-30T09:46:50;1352.90;;;765.58;;
54328;SDS011;40710;51.120;13.136;2022-08-30T09:49:30;1316.53;;;819.20;;
54328;SDS011;40710;51.120;13.136;2022-08-30T09:54:43;1365.77;;;782.63;;
54328;SDS011;40710;51.120;13.136;2022-08-30T09:57:31;1386.93;;;783.40;;
54328;SDS011;40710;51.120;13.136;2022-08-30T10:00:17;1423.90;;;818.08;;
54328;SDS011;40710;51.120;13.136;2022-08-30T10:05:30;1428.35;;;831.72;;
54328;SDS011;40710;51.120;13.136;2022-08-30T10:10:48;1418.03;;;838.00;;
54328;SDS011;40710;51.120;13.136;2022-08-30T10:16:02;1434.45;;;862.28;;
54328;SDS011;40710;51.120;13.136;2022-08-30T10:18:40;1441.40;;;881.72;;
54328;SDS011;40710;51.120;13.136;2022-08-30T10:21:18;1503.95;;;838.42;;
54328;SDS011;40710;51.120;13.136;2022-08-30T10:23:56;1386.22;;;840.35;;
54328;SDS011;40710;51.120;13.136;2022-08-30T10:29:15;1443.68;;;822.33;;
54328;SDS011;40710;51.120;13.136;2022-08-30T10:31:47;1374.65;;;863.15;;
54328;SDS011;40710;51.120;13.136;2022-08-30T10:34:33;1381.82;;;825.95;;
54328;SDS011;40710;51.120;13.136;2022-08-30T10:37:02;1405.25;;;884.80;;
54328;SDS011;40710;51.120;13.136;2022-08-30T10:39:33;1443.75;;;752.03;;
54328;SDS011;40710;51.120;13.136;2022-08-30T10:42:05;1449.13;;;857.85;;
54328;SDS011;40710;51.120;13.136;2022-08-30T10:44:36;1414.78;;;894.13;;
54328;SDS011;40710;51.120;13.136;2022-08-30T10:47:22;1413.78;;;895.58;;
54328;SDS011;40710;51.120;13.136;2022-08-30T10:50:16;1437.38;;;862.42;;
54328;SDS011;40710;51.120;13.136;2022-08-30T10:55:30;1426.13;;;899.85;;
54328;SDS011;40710;51.120;13.136;2022-08-30T10:57:59;1442.30;;;857.47;;
54328;SDS011;40710;51.120;13.136;2022-08-30T11:00:29;1436.68;;;832.78;;
54328;SDS011;40710;51.120;13.136;2022-08-30T11:03:20;1448.07;;;862.78;;
54328;SDS011;40710;51.120;13.136;2022-08-30T11:06:02;1453.82;;;867.35;;
54328;SDS011;40710;51.120;13.136;2022-08-30T11:14:34;1420.20;;;770.53;;
54328;SDS011;40710;51.120;13.136;2022-08-30T11:17:04;1381.65;;;718.15;;
54328;SDS011;40710;51.120;13.136;2022-08-30T11:19:35;1356.43;;;776.55;;
54328;SDS011;40710;51.120;13.136;2022-08-30T11:22:15;1357.95;;;788.20;;
54328;SDS011;40710;51.120;13.136;2022-08-30T11:24:59;1413.70;;;742.22;;
54328;SDS011;40710;51.120;13.136;2022-08-30T11:27:56;1334.43;;;735.63;;
54328;SDS011;40710;51.120;13.136;2022-08-30T11:30:44;1281.07;;;783.45;;
54328;SDS011;40710;51.120;13.136;2022-08-30T11:35:40;1380.68;;;757.78;;
54328;SDS011;40710;51.120;13.136;2022-08-30T11:38:11;1288.32;;;819.35;;
54328;SDS011;40710;51.120;13.136;2022-08-30T11:40:50;1311.80;;;784.03;;
54328;SDS011;40710;51.120;13.136;2022-08-30T11:43:47;1403.45;;;721.95;;
54328;SDS011;40710;51.120;13.136;2022-08-30T11:46:12;1352.18;;;570.67;;
54328;SDS011;40710;51.120;13.136;2022-08-30T11:51:21;1362.13;;;779.58;;
54328;SDS011;40710;51.120;13.136;2022-08-30T11:56:33;1457.30;;;773.72;;
54328;SDS011;40710;51.120;13.136;2022-08-30T11:59:16;1448.10;;;779.42;;
54328;SDS011;40710;51.120;13.136;2022-08-30T12:01:51;1403.30;;;789.60;;
54328;SDS011;40710;51.120;13.136;2022-08-30T12:09:05;1342.65;;;828.90;;
54328;SDS011;40710;51.120;13.136;2022-08-30T12:13:58;1313.10;;;775.83;;
54328;SDS011;40710;51.120;13.136;2022-08-30T12:16:34;1328.13;;;774.45;;
54328;SDS011;40710;51.120;13.136;2022-08-30T12:19:22;1307.43;;;846.88;;
54328;SDS011;40710;51.120;13.136;2022-08-30T12:21:55;1269.20;;;832.88;;
54328;SDS011;40710;51.120;13.136;2022-08-30T12:24:26;1318.90;;;760.97;;
54328;SDS011;40710;51.120;13.136;2022-08-30T12:26:55;1306.88;;;762.10;;
54328;SDS011;40710;51.120;13.136;2022-08-30T12:29:25;1315.22;;;773.53;;
54328;SDS011;40710;51.120;13.136;2022-08-30T12:31:53;1327.50;;;802.63;;
54328;SDS011;40710;51.120;13.136;2022-08-30T12:34:27;1313.50;;;789.20;;
54328;SDS011;40710;51.120;13.136;2022-08-30T12:37:01;1268.82;;;849.35;;
54328;SDS011;40710;51.120;13.136;2022-08-30T12:39:32;1324.05;;;799.50;;
54328;SDS011;40710;51.120;13.136;2022-08-30T12:44:42;1336.55;;;795.72;;
54328;SDS011;40710;51.120;13.136;2022-08-30T12:47:08;1299.00;;;868.33;;
54328;SDS011;40710;51.120;13.136;2022-08-30T12:49:35;1297.53;;;871.42;;
54328;SDS011;40710;51.120;13.136;2022-08-30T12:54:44;1299.43;;;874.88;;
54328;SDS011;40710;51.120;13.136;2022-08-30T12:57:08;1290.53;;;867.88;;
54328;SDS011;40710;51.120;13.136;2022-08-30T12:59:44;1293.43;;;872.42;;
54328;SDS011;40710;51.120;13.136;2022-08-30T13:02:25;1285.50;;;866.30;;
54328;SDS011;40710;51.120;13.136;2022-08-30T13:04:51;1302.80;;;874.42;;
54328;SDS011;40710;51.120;13.136;2022-08-30T13:07:34;1354.90;;;800.38;;
54328;SDS011;40710;51.120;13.136;2022-08-30T13:10:00;1380.20;;;885.33;;
54328;SDS011;40710;51.120;13.136;2022-08-30T13:12:28;1374.97;;;784.78;;
54328;SDS011;40710;51.120;13.136;2022-08-30T13:15:08;1345.15;;;793.25;;
54328;SDS011;40710;51.120;13.136;2022-08-30T13:17:39;1290.88;;;852.15;;
54328;SDS011;40710;51.120;13.136;2022-08-30T13:22:41;1331.63;;;790.97;;
54328;SDS011;40710;51.120;13.136;2022-08-30T13:25:22;1316.15;;;874.38;;
54328;SDS011;40710;51.120;13.136;2022-08-30T13:27:46;1348.90;;;795.50;;
54328;SDS011;40710;51.120;13.136;2022-08-30T13:30:12;1325.85;;;801.05;;
54328;SDS011;40710;51.120;13.136;2022-08-30T13:32:39;1297.25;;;850.45;;
54328;SDS011;40710;51.120;13.136;2022-08-30T13:35:04;1330.40;;;800.78;;
54328;SDS011;40710;51.120;13.136;2022-08-30T13:37:29;1290.72;;;867.38;;
54328;SDS011;40710;51.120;13.136;2022-08-30T13:39:54;1316.35;;;795.03;;
54328;SDS011;40710;51.120;13.136;2022-08-30T13:42:19;1284.65;;;865.75;;
54328;SDS011;40710;51.120;13.136;2022-08-30T13:44:43;1291.60;;;879.85;;
54328;SDS011;40710;51.120;13.136;2022-08-30T13:47:08;1314.60;;;815.53;;
54328;SDS011;40710;51.120;13.136;2022-08-30T13:49:34;1279.32;;;877.90;;
54328;SDS011;40710;51.120;13.136;2022-08-30T13:51:59;1281.38;;;880.28;;
54328;SDS011;40710;51.120;13.136;2022-08-30T13:54:25;1266.65;;;862.13;;
54328;SDS011;40710;51.120;13.136;2022-08-30T13:56:50;1309.20;;;791.13;;
54328;SDS011;40710;51.120;13.136;2022-08-30T13:59:16;1300.15;;;787.15;;
54328;SDS011;40710;51.120;13.136;2022-08-30T14:01:41;1271.63;;;852.63;;
54328;SDS011;40710;51.120;13.136;2022-08-30T14:04:06;1268.30;;;856.80;;
54328;SDS011;40710;51.120;13.136;2022-08-30T14:06:30;1260.85;;;834.28;;
54328;SDS011;40710;51.120;13.136;2022-08-30T14:08:54;1266.75;;;836.42;;
54328;SDS011;40710;51.120;13.136;2022-08-30T14:11:19;1270.32;;;823.22;;
54328;SDS011;40710;51.120;13.136;2022-08-30T14:13:44;1317.57;;;763.80;;
54328;SDS011;40710;51.120;13.136;2022-08-30T14:16:10;1321.93;;;765.95;;
54328;SDS011;40710;51.120;13.136;2022-08-30T14:18:34;1270.90;;;829.17;;
54328;SDS011;40710;51.120;13.136;2022-08-30T14:20:59;1290.70;;;829.42;;
54328;SDS011;40710;51.120;13.136;2022-08-30T14:23:24;1286.35;;;821.10;;
54328;SDS011;40710;51.120;13.136;2022-08-30T14:25:48;1317.10;;;739.45;;
54328;SDS011;40710;51.120;13.136;2022-08-30T14:28:13;1268.72;;;800.15;;
54328;SDS011;40710;51.120;13.136;2022-08-30T14:30:37;1312.03;;;748.92;;